createdAt,value
2023-02-18T00:00:37.386Z,9.98
2023-02-18T00:05:39.168Z,9.99
2023-02-18T00:10:42.191Z,10.02
2023-02-18T00:16:05.631Z,10.02
2023-02-18T00:21:08.870Z,10.04
2023-02-18T00:26:19.216Z,10.05
2023-02-18T00:31:41.072Z,10.07
2023-02-18T00:36:43.462Z,10.06
2023-02-18T00:41:46.419Z,10.05
2023-02-18T00:46:53.708Z,10.04
2023-02-18T00:51:58.688Z,10.04
2023-02-18T00:57:00.560Z,10.04
2023-02-18T01:02:07.921Z,10.04
2023-02-18T01:07:10.491Z,10.03
2023-02-18T01:12:12.500Z,10.01
2023-02-18T01:17:14.428Z,9.99
2023-02-18T01:22:16.221Z,9.97
2023-02-18T01:27:18.036Z,9.95
2023-02-18T01:32:19.962Z,9.93
2023-02-18T01:37:22.216Z,9.91
2023-02-18T01:42:29.526Z,9.88
2023-02-18T01:47:34.527Z,9.84
2023-02-18T01:52:36.437Z,9.80
2023-02-18T01:57:39.018Z,9.77
2023-02-18T02:02:47.051Z,9.72
2023-02-18T02:07:51.518Z,9.73
2023-02-18T02:13:18.758Z,9.68
2023-02-18T02:18:20.681Z,9.63
2023-02-18T02:23:38.684Z,9.63
2023-02-18T02:29:12.778Z,9.61
2023-02-18T02:34:23.611Z,9.60
2023-02-18T02:39:38.180Z,9.59
2023-02-18T02:44:51.272Z,9.60
2023-02-18T02:50:10.549Z,9.57
2023-02-18T02:55:14.213Z,9.57
2023-02-18T03:00:34.664Z,9.55
2023-02-18T03:05:54.669Z,9.56
2023-02-18T03:11:06.999Z,9.54
2023-02-18T03:16:33.837Z,9.53
2023-02-18T03:21:50.864Z,9.51
2023-02-18T03:27:07.672Z,9.49
2023-02-18T03:32:13.216Z,9.48
2023-02-18T03:37:16.555Z,9.46
2023-02-18T03:42:19.148Z,9.47
2023-02-18T03:47:25.194Z,9.47
2023-02-18T03:52:27.110Z,9.46
2023-02-18T03:57:47.271Z,9.45
2023-02-18T04:02:53.282Z,9.42
2023-02-18T04:07:55.397Z,9.43
2023-02-18T04:12:57.334Z,9.42
2023-02-18T04:17:59.188Z,9.41
2023-02-18T04:23:01.057Z,9.42
2023-02-18T04:28:03.130Z,9.41
2023-02-18T04:33:05.130Z,9.41
2023-02-18T04:38:08.606Z,9.40
2023-02-18T04:43:10.522Z,9.40
2023-02-18T04:48:12.523Z,9.38
2023-02-18T04:53:14.613Z,9.35
2023-02-18T04:58:16.492Z,9.35
2023-02-18T05:03:18.584Z,9.35
2023-02-18T05:08:20.824Z,9.35
2023-02-18T05:13:23.080Z,9.35
2023-02-18T05:18:25.176Z,9.34
2023-02-18T05:23:27.441Z,9.35
2023-02-18T05:28:29.813Z,9.34
2023-02-18T05:33:31.682Z,9.31
2023-02-18T05:38:33.825Z,9.30
2023-02-18T05:43:55.860Z,9.30
2023-02-18T05:49:48.156Z,9.28
2023-02-18T05:54:49.994Z,9.26
2023-02-18T06:06:08.464Z,9.27
2023-02-18T06:11:10.620Z,9.27
2023-02-18T06:16:12.591Z,9.29
2023-02-18T06:21:26.334Z,9.28
2023-02-18T06:26:30.778Z,9.27
2023-02-18T06:31:45.049Z,9.24
2023-02-18T06:36:54.914Z,9.20
2023-02-18T06:41:56.815Z,9.17
2023-02-18T06:46:58.692Z,9.14
2023-02-18T06:52:02.758Z,9.15
2023-02-18T06:57:04.748Z,9.16
2023-02-18T07:02:08.686Z,9.17
2023-02-18T07:07:10.709Z,9.21
2023-02-18T07:12:12.600Z,9.25
2023-02-18T07:17:15.169Z,9.28
2023-02-18T07:22:17.835Z,9.30
2023-02-18T07:27:21.275Z,9.32
2023-02-18T07:32:23.322Z,9.30
2023-02-18T07:37:25.404Z,9.33
2023-02-18T07:42:27.347Z,9.37
2023-02-18T07:48:00.369Z,9.36
2023-02-18T07:53:02.415Z,9.37
2023-02-18T07:58:04.307Z,9.41
2023-02-18T08:03:06.245Z,9.44
2023-02-18T08:08:16.707Z,9.50
2023-02-18T08:13:20.365Z,9.53
2023-02-18T08:18:37.358Z,9.59
2023-02-18T08:24:04.279Z,9.64
2023-02-18T08:29:06.186Z,9.65
2023-02-18T08:34:09.544Z,9.67
2023-02-18T08:39:14.469Z,9.73
2023-02-18T08:44:16.378Z,9.79
2023-02-18T08:49:24.371Z,9.83
2023-02-18T08:54:26.273Z,9.88
2023-02-18T08:59:28.405Z,9.92
2023-02-18T09:04:31.027Z,9.96
2023-02-18T09:09:33.233Z,10.02
2023-02-18T09:14:35.437Z,10.10
2023-02-18T09:19:37.230Z,10.22
2023-02-18T09:25:04.837Z,10.30
2023-02-18T09:30:07.849Z,10.34
2023-02-18T09:35:10.211Z,10.40
2023-02-18T09:40:36.364Z,10.50
2023-02-18T09:45:39.104Z,10.58
2023-02-18T09:50:41.097Z,10.64
2023-02-18T09:55:46.495Z,10.65
2023-02-18T10:07:03.939Z,10.69
2023-02-18T10:12:20.574Z,10.71
2023-02-18T10:17:31.135Z,10.67
2023-02-18T10:22:33.292Z,10.66
2023-02-18T10:27:39.472Z,10.67
2023-02-18T10:39:02.313Z,10.75
2023-02-18T10:44:42.826Z,10.77
2023-02-18T10:50:25.239Z,10.73
2023-02-18T10:55:40.058Z,10.76
2023-02-18T11:00:51.414Z,10.81
2023-02-18T11:06:33.102Z,10.87
2023-02-18T11:11:39.068Z,10.91
2023-02-18T11:16:46.753Z,11.03
2023-02-18T11:21:48.935Z,11.15
2023-02-18T11:26:51.343Z,11.22
2023-02-18T11:31:57.013Z,11.33
2023-02-18T11:37:20.085Z,11.42
2023-02-18T11:42:25.399Z,11.46
2023-02-18T11:47:34.889Z,11.48
2023-02-18T11:52:40.239Z,11.54
2023-02-18T11:57:48.421Z,11.55
2023-02-18T12:02:53.172Z,11.49
2023-02-18T12:08:18.080Z,11.46
2023-02-18T12:13:42.461Z,11.42
2023-02-18T12:18:56.676Z,11.38
2023-02-18T12:24:04.471Z,11.32
2023-02-18T12:29:33.172Z,11.34
2023-02-18T12:34:51.695Z,11.38
2023-02-18T12:40:18.294Z,11.42
2023-02-18T12:45:44.756Z,11.42
2023-02-18T12:50:58.392Z,11.33
2023-02-18T12:56:37.444Z,11.19
2023-02-18T13:01:53.448Z,11.04
2023-02-18T13:07:19.754Z,10.96
2023-02-18T13:12:36.464Z,10.91
2023-02-18T13:17:41.498Z,10.88
2023-02-18T13:22:45.922Z,10.90
2023-02-18T13:28:26.294Z,10.97
2023-02-18T13:34:05.410Z,11.00
2023-02-18T13:39:20.317Z,11.00
2023-02-18T13:44:22.793Z,10.91
2023-02-18T13:49:34.006Z,10.81
2023-02-18T13:54:45.222Z,10.76
2023-02-18T14:00:03.029Z,10.74
2023-02-18T14:05:09.731Z,10.69
2023-02-18T14:10:27.684Z,10.67
2023-02-18T14:15:39.840Z,10.63
2023-02-18T14:20:44.608Z,10.60
2023-02-18T14:25:51.467Z,10.56
2023-02-18T14:30:54.165Z,10.51
2023-02-18T14:36:32.996Z,10.47
2023-02-18T14:42:01.186Z,10.46
2023-02-18T14:47:12.456Z,10.43
2023-02-18T14:52:35.112Z,10.40
2023-02-18T14:57:51.254Z,10.37
2023-02-18T15:02:55.813Z,10.32
2023-02-18T15:08:03.853Z,10.28
2023-02-18T15:13:13.160Z,10.21
2023-02-18T15:18:36.443Z,10.16
2023-02-18T15:23:41.152Z,10.14
2023-02-18T15:29:00.784Z,10.13
2023-02-18T15:34:04.460Z,10.13
2023-02-18T15:39:06.606Z,10.15
2023-02-18T15:44:09.003Z,10.17
2023-02-18T15:49:15.194Z,10.23
2023-02-18T15:54:26.380Z,10.28
2023-02-18T15:59:36.700Z,10.32
2023-02-18T16:04:41.458Z,10.39
2023-02-18T16:09:50.246Z,10.43
2023-02-18T16:14:55.125Z,10.46
2023-02-18T16:20:05.238Z,10.49
2023-02-18T16:25:13.621Z,10.51
2023-02-18T16:30:18.092Z,10.53
2023-02-18T16:35:22.947Z,10.51
2023-02-18T16:40:40.752Z,10.49
2023-02-18T16:45:48.285Z,10.48
2023-02-18T16:51:01.168Z,10.47
2023-02-18T16:56:03.232Z,10.47
2023-02-18T17:01:05.550Z,10.47
2023-02-18T17:06:07.915Z,10.47
2023-02-18T17:12:07.833Z,10.50
2023-02-18T17:17:31.202Z,10.48
2023-02-18T17:22:35.645Z,10.45
2023-02-18T17:27:37.848Z,10.41
2023-02-18T17:32:40.634Z,10.34
2023-02-18T17:37:42.825Z,10.29
2023-02-18T17:48:03.385Z,10.21
2023-02-18T17:53:05.638Z,10.19
2023-02-18T17:58:07.549Z,10.17
2023-02-18T18:03:11.882Z,10.20
2023-02-18T18:08:14.552Z,10.20
2023-02-18T18:13:23.896Z,10.21
2023-02-18T18:18:27.781Z,10.24
2023-02-18T18:23:32.997Z,10.26
2023-02-18T18:28:37.534Z,10.29
2023-02-18T18:33:42.095Z,10.30
2023-02-18T18:38:44.093Z,10.29
2023-02-18T18:43:46.839Z,10.25
2023-02-18T18:48:49.684Z,10.22
2023-02-18T18:53:51.683Z,10.22
2023-02-18T18:59:16.570Z,10.20
2023-02-18T19:04:19.303Z,10.23
2023-02-18T19:09:21.575Z,10.25
2023-02-18T19:14:23.496Z,10.26
2023-02-18T19:19:28.121Z,10.27
2023-02-18T19:24:33.265Z,10.26
2023-02-18T19:29:36.229Z,10.24
2023-02-18T19:39:53.749Z,10.22
2023-02-18T19:45:04.648Z,10.19
2023-02-18T19:55:23.940Z,10.11
2023-02-18T20:00:25.882Z,10.09
2023-02-18T20:05:27.852Z,10.07
2023-02-18T20:10:29.740Z,10.06
2023-02-18T20:15:31.594Z,10.06
2023-02-18T20:21:05.989Z,10.04
2023-02-18T20:26:09.748Z,10.00
2023-02-18T20:31:15.545Z,9.97
2023-02-18T20:37:07.910Z,9.96
2023-02-18T20:42:16.377Z,9.97
2023-02-18T20:47:19.234Z,9.95
2023-02-18T20:52:21.181Z,9.92
2023-02-18T20:57:23.290Z,9.89
2023-02-18T21:02:25.401Z,9.86
2023-02-18T21:07:27.407Z,9.86
2023-02-18T21:12:29.654Z,9.86
2023-02-18T21:17:41.533Z,9.85
2023-02-18T21:22:43.624Z,9.86
2023-02-18T21:27:48.487Z,9.89
2023-02-18T21:32:54.246Z,9.91
2023-02-18T21:37:56.937Z,9.91
2023-02-18T21:42:59.533Z,9.92
2023-02-18T21:48:21.455Z,9.94
2023-02-18T21:53:23.385Z,9.95
2023-02-18T21:58:25.240Z,9.96
2023-02-18T22:03:33.122Z,9.96
2023-02-18T22:14:23.601Z,9.94
2023-02-18T22:19:26.272Z,9.92
2023-02-18T22:24:29.536Z,9.93
2023-02-18T22:29:37.183Z,9.93
2023-02-18T22:34:42.292Z,9.91
2023-02-18T22:39:44.214Z,9.87
2023-02-18T22:44:46.114Z,9.86
2023-02-18T22:49:52.539Z,9.85
2023-02-18T22:54:57.664Z,9.85
2023-02-18T23:00:02.621Z,9.84
2023-02-18T23:05:04.928Z,9.84
2023-02-18T23:10:07.327Z,9.86
2023-02-18T23:15:09.558Z,9.85
2023-02-18T23:20:11.370Z,9.87
2023-02-18T23:25:32.466Z,9.90
2023-02-18T23:30:34.555Z,9.90
2023-02-18T23:35:44.978Z,9.91
2023-02-18T23:40:51.170Z,9.91
2023-02-18T23:45:59.446Z,9.91
2023-02-18T23:51:02.014Z,9.92
2023-02-18T23:56:11.801Z,9.90
